sensor_id;sensor_type;location;lat;lon;timestamp;temperature;humidity
3705;DHT22;1868;48.918;9.438;2022-08-19T00:01:46;21.50;96.50
3705;DHT22;1868;48.918;9.438;2022-08-19T00:04:22;21.50;96.50
3705;DHT22;1868;48.918;9.438;2022-08-19T00:06:52;21.50;96.50
3705;DHT22;1868;48.918;9.438;2022-08-19T00:09:22;21.50;96.60
3705;DHT22;1868;48.918;9.438;2022-08-19T00:11:52;21.50;96.70
3705;DHT22;1868;48.918;9.438;2022-08-19T00:14:22;21.50;96.80
3705;DHT22;1868;48.918;9.438;2022-08-19T00:16:52;21.50;96.50
3705;DHT22;1868;48.918;9.438;2022-08-19T00:19:23;21.50;96.50
3705;DHT22;1868;48.918;9.438;2022-08-19T00:21:52;21.50;96.60
3705;DHT22;1868;48.918;9.438;2022-08-19T00:24:21;21.40;96.70
3705;DHT22;1868;48.918;9.438;2022-08-19T00:26:50;21.40;97.00
3705;DHT22;1868;48.918;9.438;2022-08-19T00:29:20;21.40;96.90
3705;DHT22;1868;48.918;9.438;2022-08-19T00:31:50;21.40;96.90
3705;DHT22;1868;48.918;9.438;2022-08-19T00:34:22;21.30;97.10
3705;DHT22;1868;48.918;9.438;2022-08-19T00:36:54;21.40;97.10
3705;DHT22;1868;48.918;9.438;2022-08-19T00:39:23;21.30;97.20
3705;DHT22;1868;48.918;9.438;2022-08-19T00:41:51;21.30;97.10
3705;DHT22;1868;48.918;9.438;2022-08-19T00:44:22;21.30;97.30
3705;DHT22;1868;48.918;9.438;2022-08-19T00:46:56;21.30;97.20
3705;DHT22;1868;48.918;9.438;2022-08-19T00:49:32;21.30;97.40
3705;DHT22;1868;48.918;9.438;2022-08-19T00:52:06;21.30;97.40
3705;DHT22;1868;48.918;9.438;2022-08-19T00:54:37;21.30;97.40
3705;DHT22;1868;48.918;9.438;2022-08-19T00:57:09;21.30;97.40
3705;DHT22;1868;48.918;9.438;2022-08-19T00:59:41;21.20;97.40
3705;DHT22;1868;48.918;9.438;2022-08-19T01:02:28;21.30;97.40
3705;DHT22;1868;48.918;9.438;2022-08-19T01:04:59;21.20;97.40
3705;DHT22;1868;48.918;9.438;2022-08-19T01:07:28;21.20;97.40
3705;DHT22;1868;48.918;9.438;2022-08-19T01:10:07;21.20;97.40
3705;DHT22;1868;48.918;9.438;2022-08-19T01:12:38;21.20;97.40
3705;DHT22;1868;48.918;9.438;2022-08-19T01:15:09;21.20;97.40
3705;DHT22;1868;48.918;9.438;2022-08-19T01:17:40;21.20;97.40
3705;DHT22;1868;48.918;9.438;2022-08-19T01:20:13;21.10;97.40
3705;DHT22;1868;48.918;9.438;2022-08-19T01:22:47;21.20;97.40
3705;DHT22;1868;48.918;9.438;2022-08-19T01:25:19;21.10;97.40
3705;DHT22;1868;48.918;9.438;2022-08-19T01:27:52;21.10;97.40
3705;DHT22;1868;48.918;9.438;2022-08-19T01:30:32;21.10;97.40
3705;DHT22;1868;48.918;9.438;2022-08-19T01:33:02;21.10;97.40
3705;DHT22;1868;48.918;9.438;2022-08-19T01:35:36;21.10;97.40
3705;DHT22;1868;48.918;9.438;2022-08-19T01:38:08;21.10;97.40
3705;DHT22;1868;48.918;9.438;2022-08-19T01:40:39;21.10;97.40
3705;DHT22;1868;48.918;9.438;2022-08-19T01:43:08;21.10;97.40
3705;DHT22;1868;48.918;9.438;2022-08-19T01:45:37;21.00;97.40
3705;DHT22;1868;48.918;9.438;2022-08-19T01:48:06;21.00;97.40
3705;DHT22;1868;48.918;9.438;2022-08-19T01:50:36;21.00;97.40
3705;DHT22;1868;48.918;9.438;2022-08-19T01:53:09;20.90;97.40
3705;DHT22;1868;48.918;9.438;2022-08-19T01:55:41;20.90;97.40
3705;DHT22;1868;48.918;9.438;2022-08-19T01:58:13;20.90;97.40
3705;DHT22;1868;48.918;9.438;2022-08-19T02:00:43;20.90;97.40
3705;DHT22;1868;48.918;9.438;2022-08-19T02:03:13;20.90;97.40
3705;DHT22;1868;48.918;9.438;2022-08-19T02:05:42;20.90;97.40
3705;DHT22;1868;48.918;9.438;2022-08-19T02:08:13;20.90;97.40
3705;DHT22;1868;48.918;9.438;2022-08-19T02:10:43;20.80;97.40
3705;DHT22;1868;48.918;9.438;2022-08-19T02:13:13;20.80;97.40
3705;DHT22;1868;48.918;9.438;2022-08-19T02:15:46;20.80;97.40
3705;DHT22;1868;48.918;9.438;2022-08-19T02:18:15;20.80;97.40
3705;DHT22;1868;48.918;9.438;2022-08-19T02:20:44;20.80;97.40
3705;DHT22;1868;48.918;9.438;2022-08-19T02:23:16;20.80;97.40
3705;DHT22;1868;48.918;9.438;2022-08-19T02:25:46;20.80;97.40
3705;DHT22;1868;48.918;9.438;2022-08-19T02:28:16;20.70;97.40
3705;DHT22;1868;48.918;9.438;2022-08-19T02:30:45;20.70;97.40
3705;DHT22;1868;48.918;9.438;2022-08-19T02:33:14;20.70;97.40
3705;DHT22;1868;48.918;9.438;2022-08-19T02:35:44;20.70;97.40
3705;DHT22;1868;48.918;9.438;2022-08-19T02:38:14;20.70;97.40
3705;DHT22;1868;48.918;9.438;2022-08-19T02:40:57;20.70;97.40
3705;DHT22;1868;48.918;9.438;2022-08-19T02:43:27;20.70;97.40
3705;DHT22;1868;48.918;9.438;2022-08-19T02:46:00;20.70;97.40
3705;DHT22;1868;48.918;9.438;2022-08-19T02:48:29;20.70;97.40
3705;DHT22;1868;48.918;9.438;2022-08-19T02:50:59;20.60;97.40
3705;DHT22;1868;48.918;9.438;2022-08-19T02:53:29;20.60;97.40
3705;DHT22;1868;48.918;9.438;2022-08-19T02:55:57;20.60;97.40
3705;DHT22;1868;48.918;9.438;2022-08-19T02:58:26;20.60;97.40
3705;DHT22;1868;48.918;9.438;2022-08-19T03:00:56;20.60;97.40
3705;DHT22;1868;48.918;9.438;2022-08-19T03:03:25;20.60;97.40
3705;DHT22;1868;48.918;9.438;2022-08-19T03:06:06;20.60;97.40
3705;DHT22;1868;48.918;9.438;2022-08-19T03:08:38;20.60;97.40
3705;DHT22;1868;48.918;9.438;2022-08-19T03:11:13;20.50;97.40
3705;DHT22;1868;48.918;9.438;2022-08-19T03:13:42;20.50;97.40
3705;DHT22;1868;48.918;9.438;2022-08-19T03:16:11;20.50;97.40
3705;DHT22;1868;48.918;9.438;2022-08-19T03:18:40;20.50;97.40
3705;DHT22;1868;48.918;9.438;2022-08-19T03:21:09;20.50;97.40
3705;DHT22;1868;48.918;9.438;2022-08-19T03:23:45;20.50;97.40
3705;DHT22;1868;48.918;9.438;2022-08-19T03:26:14;20.40;97.40
3705;DHT22;1868;48.918;9.438;2022-08-19T03:28:43;20.40;97.40
3705;DHT22;1868;48.918;9.438;2022-08-19T03:31:19;20.40;97.40
3705;DHT22;1868;48.918;9.438;2022-08-19T03:34:10;20.30;97.40
3705;DHT22;1868;48.918;9.438;2022-08-19T03:36:39;20.30;97.40
3705;DHT22;1868;48.918;9.438;2022-08-19T03:39:10;20.30;97.40
3705;DHT22;1868;48.918;9.438;2022-08-19T03:41:41;20.30;97.40
3705;DHT22;1868;48.918;9.438;2022-08-19T03:44:12;20.30;97.40
3705;DHT22;1868;48.918;9.438;2022-08-19T03:46:45;20.30;97.40
3705;DHT22;1868;48.918;9.438;2022-08-19T03:49:15;20.30;97.40
3705;DHT22;1868;48.918;9.438;2022-08-19T03:51:44;20.30;97.40
3705;DHT22;1868;48.918;9.438;2022-08-19T03:54:17;20.30;97.40
3705;DHT22;1868;48.918;9.438;2022-08-19T03:56:49;20.20;97.40
3705;DHT22;1868;48.918;9.438;2022-08-19T03:59:21;20.20;97.40
3705;DHT22;1868;48.918;9.438;2022-08-19T04:01:53;20.20;97.40
3705;DHT22;1868;48.918;9.438;2022-08-19T04:04:23;20.20;97.40
3705;DHT22;1868;48.918;9.438;2022-08-19T04:06:56;20.20;97.40
3705;DHT22;1868;48.918;9.438;2022-08-19T04:09:25;20.20;97.40
3705;DHT22;1868;48.918;9.438;2022-08-19T04:11:55;20.20;97.40
3705;DHT22;1868;48.918;9.438;2022-08-19T04:14:26;20.20;97.40
3705;DHT22;1868;48.918;9.438;2022-08-19T04:16:58;20.20;97.40
3705;DHT22;1868;48.918;9.438;2022-08-19T04:19:28;20.20;97.40
3705;DHT22;1868;48.918;9.438;2022-08-19T04:21:57;20.20;97.40
3705;DHT22;1868;48.918;9.438;2022-08-19T04:24:27;20.10;97.40
3705;DHT22;1868;48.918;9.438;2022-08-19T04:26:56;20.10;97.40
3705;DHT22;1868;48.918;9.438;2022-08-19T04:29:25;20.10;97.40
3705;DHT22;1868;48.918;9.438;2022-08-19T04:31:55;20.10;97.40
3705;DHT22;1868;48.918;9.438;2022-08-19T04:34:25;20.10;97.40
3705;DHT22;1868;48.918;9.438;2022-08-19T04:36:57;20.10;97.40
3705;DHT22;1868;48.918;9.438;2022-08-19T04:39:30;20.10;97.40
3705;DHT22;1868;48.918;9.438;2022-08-19T04:42:13;20.10;97.40
3705;DHT22;1868;48.918;9.438;2022-08-19T04:44:59;20.10;97.40
3705;DHT22;1868;48.918;9.438;2022-08-19T04:47:31;20.10;97.40
3705;DHT22;1868;48.918;9.438;2022-08-19T04:50:14;20.10;97.40
3705;DHT22;1868;48.918;9.438;2022-08-19T04:52:44;20.10;97.40
3705;DHT22;1868;48.918;9.438;2022-08-19T04:55:15;20.10;97.40
3705;DHT22;1868;48.918;9.438;2022-08-19T04:57:43;20.10;97.40
3705;DHT22;1868;48.918;9.438;2022-08-19T05:00:12;20.20;97.40
3705;DHT22;1868;48.918;9.438;2022-08-19T05:02:41;20.20;97.40
3705;DHT22;1868;48.918;9.438;2022-08-19T05:05:09;20.20;97.40
3705;DHT22;1868;48.918;9.438;2022-08-19T05:07:39;20.20;97.40
3705;DHT22;1868;48.918;9.438;2022-08-19T05:10:08;20.20;97.40
3705;DHT22;1868;48.918;9.438;2022-08-19T05:12:38;20.20;97.40
3705;DHT22;1868;48.918;9.438;2022-08-19T05:15:08;20.20;97.40
3705;DHT22;1868;48.918;9.438;2022-08-19T05:17:37;20.20;97.40
3705;DHT22;1868;48.918;9.438;2022-08-19T05:20:25;20.20;97.40
3705;DHT22;1868;48.918;9.438;2022-08-19T05:23:11;20.20;97.40
3705;DHT22;1868;48.918;9.438;2022-08-19T05:25:48;20.20;97.40
3705;DHT22;1868;48.918;9.438;2022-08-19T05:28:20;20.20;97.40
3705;DHT22;1868;48.918;9.438;2022-08-19T05:30:48;20.20;97.40
3705;DHT22;1868;48.918;9.438;2022-08-19T05:33:17;20.30;97.40
3705;DHT22;1868;48.918;9.438;2022-08-19T05:35:46;20.30;97.40
3705;DHT22;1868;48.918;9.438;2022-08-19T05:38:15;20.20;97.40
3705;DHT22;1868;48.918;9.438;2022-08-19T05:40:44;20.30;97.40
3705;DHT22;1868;48.918;9.438;2022-08-19T05:43:14;20.30;97.40
3705;DHT22;1868;48.918;9.438;2022-08-19T05:45:45;20.30;97.40
3705;DHT22;1868;48.918;9.438;2022-08-19T05:48:14;20.30;97.40
3705;DHT22;1868;48.918;9.438;2022-08-19T05:50:44;20.30;97.40
3705;DHT22;1868;48.918;9.438;2022-08-19T05:53:13;20.30;97.40
3705;DHT22;1868;48.918;9.438;2022-08-19T05:55:45;20.40;97.40
3705;DHT22;1868;48.918;9.438;2022-08-19T05:58:14;20.40;97.40
3705;DHT22;1868;48.918;9.438;2022-08-19T06:00:44;20.40;97.40
3705;DHT22;1868;48.918;9.438;2022-08-19T06:03:13;20.40;97.40
3705;DHT22;1868;48.918;9.438;2022-08-19T06:05:42;20.40;97.40
3705;DHT22;1868;48.918;9.438;2022-08-19T06:08:19;20.40;97.40
3705;DHT22;1868;48.918;9.438;2022-08-19T06:11:13;20.40;97.40
3705;DHT22;1868;48.918;9.438;2022-08-19T06:13:44;20.50;97.40
3705;DHT22;1868;48.918;9.438;2022-08-19T06:16:15;20.50;97.40
3705;DHT22;1868;48.918;9.438;2022-08-19T06:18:50;20.50;97.40
3705;DHT22;1868;48.918;9.438;2022-08-19T06:21:19;20.50;97.40
3705;DHT22;1868;48.918;9.438;2022-08-19T06:23:50;20.50;97.40
3705;DHT22;1868;48.918;9.438;2022-08-19T06:26:19;20.40;97.40
3705;DHT22;1868;48.918;9.438;2022-08-19T06:28:48;20.40;97.40
3705;DHT22;1868;48.918;9.438;2022-08-19T06:31:21;20.50;97.40
3705;DHT22;1868;48.918;9.438;2022-08-19T06:33:51;20.50;97.40
3705;DHT22;1868;48.918;9.438;2022-08-19T06:36:21;20.50;97.40
3705;DHT22;1868;48.918;9.438;2022-08-19T06:38:54;20.50;97.40
3705;DHT22;1868;48.918;9.438;2022-08-19T06:41:27;20.50;97.40
3705;DHT22;1868;48.918;9.438;2022-08-19T06:43:56;20.60;97.40
3705;DHT22;1868;48.918;9.438;2022-08-19T06:46:27;20.60;97.40
3705;DHT22;1868;48.918;9.438;2022-08-19T06:49:00;20.60;97.40
3705;DHT22;1868;48.918;9.438;2022-08-19T06:51:31;20.70;97.40
3705;DHT22;1868;48.918;9.438;2022-08-19T06:54:08;20.80;97.40
3705;DHT22;1868;48.918;9.438;2022-08-19T06:56:45;20.90;97.40
3705;DHT22;1868;48.918;9.438;2022-08-19T06:59:18;21.00;97.40
3705;DHT22;1868;48.918;9.438;2022-08-19T07:01:52;21.10;97.40
3705;DHT22;1868;48.918;9.438;2022-08-19T07:04:23;21.10;97.40
3705;DHT22;1868;48.918;9.438;2022-08-19T07:06:58;21.20;97.40
3705;DHT22;1868;48.918;9.438;2022-08-19T07:09:46;21.30;97.40
3705;DHT22;1868;48.918;9.438;2022-08-19T07:12:28;21.40;97.40
3705;DHT22;1868;48.918;9.438;2022-08-19T07:15:02;21.40;97.40
3705;DHT22;1868;48.918;9.438;2022-08-19T07:17:32;21.50;97.40
3705;DHT22;1868;48.918;9.438;2022-08-19T07:20:06;21.50;97.40
3705;DHT22;1868;48.918;9.438;2022-08-19T07:22:36;21.50;97.40
3705;DHT22;1868;48.918;9.438;2022-08-19T07:25:06;21.50;97.40
3705;DHT22;1868;48.918;9.438;2022-08-19T07:27:37;21.50;97.40
3705;DHT22;1868;48.918;9.438;2022-08-19T07:30:07;21.50;97.40
3705;DHT22;1868;48.918;9.438;2022-08-19T07:32:42;21.50;97.40
3705;DHT22;1868;48.918;9.438;2022-08-19T07:35:10;21.50;97.40
3705;DHT22;1868;48.918;9.438;2022-08-19T07:37:38;21.60;97.40
3705;DHT22;1868;48.918;9.438;2022-08-19T07:40:12;21.50;97.40
3705;DHT22;1868;48.918;9.438;2022-08-19T07:42:41;21.50;97.40
3705;DHT22;1868;48.918;9.438;2022-08-19T07:45:12;21.50;97.40
3705;DHT22;1868;48.918;9.438;2022-08-19T07:47:44;21.50;97.40
3705;DHT22;1868;48.918;9.438;2022-08-19T07:50:18;21.50;97.40
3705;DHT22;1868;48.918;9.438;2022-08-19T07:52:48;21.50;97.40
3705;DHT22;1868;48.918;9.438;2022-08-19T07:55:18;21.50;97.40
3705;DHT22;1868;48.918;9.438;2022-08-19T07:58:09;21.50;97.40
3705;DHT22;1868;48.918;9.438;2022-08-19T08:00:39;21.50;97.40
3705;DHT22;1868;48.918;9.438;2022-08-19T08:03:11;21.50;97.40
3705;DHT22;1868;48.918;9.438;2022-08-19T08:05:41;21.50;97.40
3705;DHT22;1868;48.918;9.438;2022-08-19T08:08:26;21.50;97.40
3705;DHT22;1868;48.918;9.438;2022-08-19T08:11:15;21.50;97.40
3705;DHT22;1868;48.918;9.438;2022-08-19T08:13:47;21.50;97.40
3705;DHT22;1868;48.918;9.438;2022-08-19T08:16:27;21.50;97.40
3705;DHT22;1868;48.918;9.438;2022-08-19T08:18:59;21.40;97.40
3705;DHT22;1868;48.918;9.438;2022-08-19T08:21:27;21.40;97.40
3705;DHT22;1868;48.918;9.438;2022-08-19T08:23:56;21.40;97.40
3705;DHT22;1868;48.918;9.438;2022-08-19T08:26:29;21.40;97.40
3705;DHT22;1868;48.918;9.438;2022-08-19T08:29:00;21.30;97.40
3705;DHT22;1868;48.918;9.438;2022-08-19T08:31:39;21.30;97.40
3705;DHT22;1868;48.918;9.438;2022-08-19T08:34:12;21.30;97.40
3705;DHT22;1868;48.918;9.438;2022-08-19T08:36:45;21.30;97.40
3705;DHT22;1868;48.918;9.438;2022-08-19T08:39:17;21.30;97.40
3705;DHT22;1868;48.918;9.438;2022-08-19T08:41:53;21.30;97.40
3705;DHT22;1868;48.918;9.438;2022-08-19T08:44:42;21.30;97.40
3705;DHT22;1868;48.918;9.438;2022-08-19T08:47:18;21.30;97.40
3705;DHT22;1868;48.918;9.438;2022-08-19T08:49:53;21.40;97.40
3705;DHT22;1868;48.918;9.438;2022-08-19T08:52:25;21.50;97.40
3705;DHT22;1868;48.918;9.438;2022-08-19T08:55:00;21.50;97.40
3705;DHT22;1868;48.918;9.438;2022-08-19T08:57:51;21.50;97.40
3705;DHT22;1868;48.918;9.438;2022-08-19T09:00:27;21.50;97.40
3705;DHT22;1868;48.918;9.438;2022-08-19T09:02:58;21.50;97.40
3705;DHT22;1868;48.918;9.438;2022-08-19T09:05:39;21.50;97.40
3705;DHT22;1868;48.918;9.438;2022-08-19T09:08:23;21.50;97.40
3705;DHT22;1868;48.918;9.438;2022-08-19T09:10:58;21.50;97.40
3705;DHT22;1868;48.918;9.438;2022-08-19T09:13:36;21.50;97.40
3705;DHT22;1868;48.918;9.438;2022-08-19T09:16:13;21.50;97.40
3705;DHT22;1868;48.918;9.438;2022-08-19T09:18:48;21.50;97.40
3705;DHT22;1868;48.918;9.438;2022-08-19T09:21:21;21.50;97.40
3705;DHT22;1868;48.918;9.438;2022-08-19T09:23:59;21.50;97.40
3705;DHT22;1868;48.918;9.438;2022-08-19T09:26:30;21.50;97.40
3705;DHT22;1868;48.918;9.438;2022-08-19T09:29:14;21.50;97.40
3705;DHT22;1868;48.918;9.438;2022-08-19T09:31:43;21.50;97.40
3705;DHT22;1868;48.918;9.438;2022-08-19T09:34:20;21.50;97.40
3705;DHT22;1868;48.918;9.438;2022-08-19T09:36:51;21.60;97.40
3705;DHT22;1868;48.918;9.438;2022-08-19T09:39:21;21.60;97.40
3705;DHT22;1868;48.918;9.438;2022-08-19T09:41:50;21.70;97.40
3705;DHT22;1868;48.918;9.438;2022-08-19T09:44:19;21.70;97.40
3705;DHT22;1868;48.918;9.438;2022-08-19T09:46:48;21.80;97.40
3705;DHT22;1868;48.918;9.438;2022-08-19T09:49:18;21.80;97.40
3705;DHT22;1868;48.918;9.438;2022-08-19T09:51:52;21.70;97.40
3705;DHT22;1868;48.918;9.438;2022-08-19T09:54:25;21.70;97.40
3705;DHT22;1868;48.918;9.438;2022-08-19T09:56:54;21.60;97.40
3705;DHT22;1868;48.918;9.438;2022-08-19T09:59:23;21.50;97.40
3705;DHT22;1868;48.918;9.438;2022-08-19T10:01:52;21.50;97.40
3705;DHT22;1868;48.918;9.438;2022-08-19T10:04:29;21.50;97.40
3705;DHT22;1868;48.918;9.438;2022-08-19T10:07:13;21.40;97.40
3705;DHT22;1868;48.918;9.438;2022-08-19T10:09:41;21.50;97.40
3705;DHT22;1868;48.918;9.438;2022-08-19T10:12:12;21.50;97.40
3705;DHT22;1868;48.918;9.438;2022-08-19T10:14:48;21.50;97.40
3705;DHT22;1868;48.918;9.438;2022-08-19T10:17:21;21.50;97.40
3705;DHT22;1868;48.918;9.438;2022-08-19T10:19:53;21.50;97.40
3705;DHT22;1868;48.918;9.438;2022-08-19T10:22:23;21.60;97.40
3705;DHT22;1868;48.918;9.438;2022-08-19T10:24:52;21.60;97.40
3705;DHT22;1868;48.918;9.438;2022-08-19T10:27:20;21.70;97.40
3705;DHT22;1868;48.918;9.438;2022-08-19T10:29:52;21.80;97.40
3705;DHT22;1868;48.918;9.438;2022-08-19T10:32:20;21.90;97.40
3705;DHT22;1868;48.918;9.438;2022-08-19T10:35:05;22.00;97.40
3705;DHT22;1868;48.918;9.438;2022-08-19T10:37:38;22.10;97.40
3705;DHT22;1868;48.918;9.438;2022-08-19T10:40:23;22.20;97.40
3705;DHT22;1868;48.918;9.438;2022-08-19T10:42:53;22.10;97.40
3705;DHT22;1868;48.918;9.438;2022-08-19T10:45:22;22.10;97.40
3705;DHT22;1868;48.918;9.438;2022-08-19T10:47:54;22.20;97.40
3705;DHT22;1868;48.918;9.438;2022-08-19T10:50:22;22.20;97.40
3705;DHT22;1868;48.918;9.438;2022-08-19T10:53:18;22.10;97.40
3705;DHT22;1868;48.918;9.438;2022-08-19T10:55:53;22.10;97.40
3705;DHT22;1868;48.918;9.438;2022-08-19T10:58:38;22.10;97.40
3705;DHT22;1868;48.918;9.438;2022-08-19T11:01:08;22.00;97.40
3705;DHT22;1868;48.918;9.438;2022-08-19T11:03:37;22.00;97.40
3705;DHT22;1868;48.918;9.438;2022-08-19T11:06:08;21.90;97.40
3705;DHT22;1868;48.918;9.438;2022-08-19T11:08:38;21.90;97.40
3705;DHT22;1868;48.918;9.438;2022-08-19T11:11:08;21.90;97.40
3705;DHT22;1868;48.918;9.438;2022-08-19T11:13:41;21.90;97.40
3705;DHT22;1868;48.918;9.438;2022-08-19T11:16:21;22.00;97.40
3705;DHT22;1868;48.918;9.438;2022-08-19T11:18:56;22.00;97.40
3705;DHT22;1868;48.918;9.438;2022-08-19T11:21:32;22.00;97.40
3705;DHT22;1868;48.918;9.438;2022-08-19T11:24:06;22.00;97.40
3705;DHT22;1868;48.918;9.438;2022-08-19T11:26:37;22.00;97.40
3705;DHT22;1868;48.918;9.438;2022-08-19T11:29:08;22.00;97.40
3705;DHT22;1868;48.918;9.438;2022-08-19T11:31:42;22.00;97.40
3705;DHT22;1868;48.918;9.438;2022-08-19T11:34:16;21.90;97.40
3705;DHT22;1868;48.918;9.438;2022-08-19T11:36:46;21.90;97.40
3705;DHT22;1868;48.918;9.438;2022-08-19T11:39:19;21.90;97.40
3705;DHT22;1868;48.918;9.438;2022-08-19T11:41:49;22.00;97.40
3705;DHT22;1868;48.918;9.438;2022-08-19T11:44:17;22.00;97.40
3705;DHT22;1868;48.918;9.438;2022-08-19T11:46:46;22.00;97.40
3705;DHT22;1868;48.918;9.438;2022-08-19T11:49:16;22.00;97.40
3705;DHT22;1868;48.918;9.438;2022-08-19T11:51:47;22.10;97.40
3705;DHT22;1868;48.918;9.438;2022-08-19T11:54:18;22.10;97.40
3705;DHT22;1868;48.918;9.438;2022-08-19T11:56:47;22.20;97.40
3705;DHT22;1868;48.918;9.438;2022-08-19T11:59:15;22.20;97.40
3705;DHT22;1868;48.918;9.438;2022-08-19T12:01:44;22.30;97.40
3705;DHT22;1868;48.918;9.438;2022-08-19T12:04:13;22.30;97.40
3705;DHT22;1868;48.918;9.438;2022-08-19T12:06:44;22.30;97.40
3705;DHT22;1868;48.918;9.438;2022-08-19T12:09:12;22.30;97.40
3705;DHT22;1868;48.918;9.438;2022-08-19T12:11:45;22.30;97.40
3705;DHT22;1868;48.918;9.438;2022-08-19T12:14:14;22.40;97.40
3705;DHT22;1868;48.918;9.438;2022-08-19T12:16:45;22.40;97.40
3705;DHT22;1868;48.918;9.438;2022-08-19T12:19:18;22.40;97.40
3705;DHT22;1868;48.918;9.438;2022-08-19T12:21:48;22.40;97.40
3705;DHT22;1868;48.918;9.438;2022-08-19T12:24:18;22.50;97.40
3705;DHT22;1868;48.918;9.438;2022-08-19T12:26:51;22.50;97.40
3705;DHT22;1868;48.918;9.438;2022-08-19T12:29:21;22.50;97.40
3705;DHT22;1868;48.918;9.438;2022-08-19T12:31:56;22.50;97.40
3705;DHT22;1868;48.918;9.438;2022-08-19T12:34:28;22.40;97.40
3705;DHT22;1868;48.918;9.438;2022-08-19T12:36:58;22.40;97.40
3705;DHT22;1868;48.918;9.438;2022-08-19T12:39:26;22.40;97.40
3705;DHT22;1868;48.918;9.438;2022-08-19T12:41:56;22.40;97.40
3705;DHT22;1868;48.918;9.438;2022-08-19T12:44:26;22.40;97.40
3705;DHT22;1868;48.918;9.438;2022-08-19T12:46:58;22.40;97.40
3705;DHT22;1868;48.918;9.438;2022-08-19T12:49:27;22.50;97.40
3705;DHT22;1868;48.918;9.438;2022-08-19T12:52:16;22.50;97.40
3705;DHT22;1868;48.918;9.438;2022-08-19T12:54:49;22.50;97.40
3705;DHT22;1868;48.918;9.438;2022-08-19T12:57:22;22.50;97.40
3705;DHT22;1868;48.918;9.438;2022-08-19T12:59:58;22.60;97.40
3705;DHT22;1868;48.918;9.438;2022-08-19T13:02:30;22.40;97.40
3705;DHT22;1868;48.918;9.438;2022-08-19T13:05:07;22.40;97.40
3705;DHT22;1868;48.918;9.438;2022-08-19T13:07:37;22.50;97.40
3705;DHT22;1868;48.918;9.438;2022-08-19T13:10:08;22.50;97.40
3705;DHT22;1868;48.918;9.438;2022-08-19T13:12:39;22.50;97.40
3705;DHT22;1868;48.918;9.438;2022-08-19T13:15:09;22.60;97.40
3705;DHT22;1868;48.918;9.438;2022-08-19T13:17:41;22.50;97.40
3705;DHT22;1868;48.918;9.438;2022-08-19T13:20:10;22.60;97.40
3705;DHT22;1868;48.918;9.438;2022-08-19T13:22:39;22.60;97.40
3705;DHT22;1868;48.918;9.438;2022-08-19T13:25:08;22.60;97.40
3705;DHT22;1868;48.918;9.438;2022-08-19T13:27:39;22.60;97.40
3705;DHT22;1868;48.918;9.438;2022-08-19T13:30:09;22.70;97.40
3705;DHT22;1868;48.918;9.438;2022-08-19T13:32:56;22.70;97.40
3705;DHT22;1868;48.918;9.438;2022-08-19T13:35:45;22.70;97.40
3705;DHT22;1868;48.918;9.438;2022-08-19T13:38:17;22.70;97.40
3705;DHT22;1868;48.918;9.438;2022-08-19T13:40:48;22.80;97.40
3705;DHT22;1868;48.918;9.438;2022-08-19T13:43:20;22.90;97.40
3705;DHT22;1868;48.918;9.438;2022-08-19T13:45:51;22.90;97.40
3705;DHT22;1868;48.918;9.438;2022-08-19T13:48:22;23.00;97.40
3705;DHT22;1868;48.918;9.438;2022-08-19T13:50:52;23.00;97.40
3705;DHT22;1868;48.918;9.438;2022-08-19T13:53:21;23.10;97.40
3705;DHT22;1868;48.918;9.438;2022-08-19T13:55:50;23.10;97.40
3705;DHT22;1868;48.918;9.438;2022-08-19T13:58:21;23.10;97.40
3705;DHT22;1868;48.918;9.438;2022-08-19T14:00:50;23.10;97.40
3705;DHT22;1868;48.918;9.438;2022-08-19T14:03:18;23.20;97.40
3705;DHT22;1868;48.918;9.438;2022-08-19T14:05:47;23.30;97.40
3705;DHT22;1868;48.918;9.438;2022-08-19T14:08:15;23.50;97.40
3705;DHT22;1868;48.918;9.438;2022-08-19T14:10:45;23.60;97.40
3705;DHT22;1868;48.918;9.438;2022-08-19T14:13:16;23.70;97.40
3705;DHT22;1868;48.918;9.438;2022-08-19T14:15:48;23.90;97.40
3705;DHT22;1868;48.918;9.438;2022-08-19T14:18:18;24.00;97.40
3705;DHT22;1868;48.918;9.438;2022-08-19T14:20:46;24.00;97.40
3705;DHT22;1868;48.918;9.438;2022-08-19T14:23:14;24.00;97.40
3705;DHT22;1868;48.918;9.438;2022-08-19T14:25:43;23.90;97.40
3705;DHT22;1868;48.918;9.438;2022-08-19T14:28:13;23.80;97.40
3705;DHT22;1868;48.918;9.438;2022-08-19T14:30:41;23.80;97.40
3705;DHT22;1868;48.918;9.438;2022-08-19T14:33:14;23.70;97.40
3705;DHT22;1868;48.918;9.438;2022-08-19T14:35:50;23.60;97.40
3705;DHT22;1868;48.918;9.438;2022-08-19T14:38:26;23.40;97.40
3705;DHT22;1868;48.918;9.438;2022-08-19T14:41:07;23.30;97.40
3705;DHT22;1868;48.918;9.438;2022-08-19T14:43:43;23.30;97.40
3705;DHT22;1868;48.918;9.438;2022-08-19T14:46:14;23.20;97.40
3705;DHT22;1868;48.918;9.438;2022-08-19T14:48:44;23.20;97.40
3705;DHT22;1868;48.918;9.438;2022-08-19T14:51:20;23.20;97.40
3705;DHT22;1868;48.918;9.438;2022-08-19T14:53:49;23.20;97.40
3705;DHT22;1868;48.918;9.438;2022-08-19T14:56:21;23.20;97.40
3705;DHT22;1868;48.918;9.438;2022-08-19T14:58:52;23.20;97.40
3705;DHT22;1868;48.918;9.438;2022-08-19T15:01:22;23.20;97.40
3705;DHT22;1868;48.918;9.438;2022-08-19T15:03:53;23.30;97.40
3705;DHT22;1868;48.918;9.438;2022-08-19T15:06:22;23.30;97.40
3705;DHT22;1868;48.918;9.438;2022-08-19T15:08:54;23.30;97.40
3705;DHT22;1868;48.918;9.438;2022-08-19T15:11:29;23.30;97.40
3705;DHT22;1868;48.918;9.438;2022-08-19T15:13:59;23.20;97.40
3705;DHT22;1868;48.918;9.438;2022-08-19T15:16:28;23.00;97.40
3705;DHT22;1868;48.918;9.438;2022-08-19T15:18:58;22.80;97.40
3705;DHT22;1868;48.918;9.438;2022-08-19T15:21:28;22.70;97.40
3705;DHT22;1868;48.918;9.438;2022-08-19T15:23:58;22.60;97.40
3705;DHT22;1868;48.918;9.438;2022-08-19T15:26:27;22.50;97.40
3705;DHT22;1868;48.918;9.438;2022-08-19T15:28:59;22.30;97.40
3705;DHT22;1868;48.918;9.438;2022-08-19T15:31:27;22.20;97.40
3705;DHT22;1868;48.918;9.438;2022-08-19T15:34:06;22.00;97.40
3705;DHT22;1868;48.918;9.438;2022-08-19T15:36:35;21.90;97.40
3705;DHT22;1868;48.918;9.438;2022-08-19T15:39:04;21.70;97.40
3705;DHT22;1868;48.918;9.438;2022-08-19T15:41:33;21.60;97.40
3705;DHT22;1868;48.918;9.438;2022-08-19T15:44:05;21.60;97.40
3705;DHT22;1868;48.918;9.438;2022-08-19T15:46:38;21.50;97.40
3705;DHT22;1868;48.918;9.438;2022-08-19T15:49:09;21.30;97.40
3705;DHT22;1868;48.918;9.438;2022-08-19T15:51:40;21.20;97.40
3705;DHT22;1868;48.918;9.438;2022-08-19T15:54:13;21.10;97.40
3705;DHT22;1868;48.918;9.438;2022-08-19T15:56:43;21.10;97.40
3705;DHT22;1868;48.918;9.438;2022-08-19T15:59:29;21.00;97.40
3705;DHT22;1868;48.918;9.438;2022-08-19T16:02:17;21.00;97.40
3705;DHT22;1868;48.918;9.438;2022-08-19T16:05:08;21.10;97.40
3705;DHT22;1868;48.918;9.438;2022-08-19T16:07:55;21.00;97.40
3705;DHT22;1868;48.918;9.438;2022-08-19T16:10:24;21.00;97.40
3705;DHT22;1868;48.918;9.438;2022-08-19T16:12:54;21.10;97.40
3705;DHT22;1868;48.918;9.438;2022-08-19T16:15:24;21.10;97.40
3705;DHT22;1868;48.918;9.438;2022-08-19T16:17:53;21.20;97.40
3705;DHT22;1868;48.918;9.438;2022-08-19T16:20:25;21.20;97.40
3705;DHT22;1868;48.918;9.438;2022-08-19T16:22:54;21.20;97.40
3705;DHT22;1868;48.918;9.438;2022-08-19T16:25:24;21.20;97.40
3705;DHT22;1868;48.918;9.438;2022-08-19T16:27:55;21.20;97.40
3705;DHT22;1868;48.918;9.438;2022-08-19T16:30:36;21.30;97.40
3705;DHT22;1868;48.918;9.438;2022-08-19T16:33:07;21.30;97.40
3705;DHT22;1868;48.918;9.438;2022-08-19T16:35:38;21.30;97.40